sensor_id;sensor_type;location;lat;lon;timestamp;P1;durP1;ratioP1;P2;durP2;ratioP2
11453;SDS011;5783;55.174;61.310;2023-09-19T00:01:10;2.00;;;1.90;;
11453;SDS011;5783;55.174;61.310;2023-09-19T00:03:39;2.73;;;2.00;;
11453;SDS011;5783;55.174;61.310;2023-09-19T00:06:09;2.40;;;2.00;;
11453;SDS011;5783;55.174;61.310;2023-09-19T00:08:39;2.23;;;1.90;;
11453;SDS011;5783;55.174;61.310;2023-09-19T00:11:28;3.10;;;2.20;;
11453;SDS011;5783;55.174;61.310;2023-09-19T00:13:57;2.27;;;2.07;;
11453;SDS011;5783;55.174;61.310;2023-09-19T00:16:26;2.13;;;1.90;;
11453;SDS011;5783;55.174;61.310;2023-09-19T00:18:56;2.40;;;2.20;;
11453;SDS011;5783;55.174;61.310;2023-09-19T00:21:26;2.43;;;2.10;;
11453;SDS011;5783;55.174;61.310;2023-09-19T00:23:56;2.20;;;2.00;;
11453;SDS011;5783;55.174;61.310;2023-09-19T00:26:25;3.10;;;2.00;;
11453;SDS011;5783;55.174;61.310;2023-09-19T00:28:56;3.60;;;2.00;;
11453;SDS011;5783;55.174;61.310;2023-09-19T00:31:27;2.60;;;1.93;;
11453;SDS011;5783;55.174;61.310;2023-09-19T00:33:56;2.40;;;2.00;;
11453;SDS011;5783;55.174;61.310;2023-09-19T00:36:27;2.20;;;1.90;;
11453;SDS011;5783;55.174;61.310;2023-09-19T00:38:56;2.10;;;1.90;;
11453;SDS011;5783;55.174;61.310;2023-09-19T00:41:25;2.23;;;1.83;;
11453;SDS011;5783;55.174;61.310;2023-09-19T00:43:56;2.13;;;1.90;;
11453;SDS011;5783;55.174;61.310;2023-09-19T00:46:26;2.30;;;2.03;;
11453;SDS011;5783;55.174;61.310;2023-09-19T00:48:56;3.17;;;2.10;;
11453;SDS011;5783;55.174;61.310;2023-09-19T00:51:25;4.10;;;2.17;;
11453;SDS011;5783;55.174;61.310;2023-09-19T00:53:55;2.67;;;1.83;;
11453;SDS011;5783;55.174;61.310;2023-09-19T00:56:25;2.13;;;1.93;;
11453;SDS011;5783;55.174;61.310;2023-09-19T00:58:54;2.70;;;2.00;;
11453;SDS011;5783;55.174;61.310;2023-09-19T01:01:23;3.00;;;1.93;;
11453;SDS011;5783;55.174;61.310;2023-09-19T01:03:53;3.10;;;2.27;;
11453;SDS011;5783;55.174;61.310;2023-09-19T01:06:22;2.27;;;2.07;;
11453;SDS011;5783;55.174;61.310;2023-09-19T01:08:52;2.20;;;2.00;;
11453;SDS011;5783;55.174;61.310;2023-09-19T01:11:25;2.10;;;1.90;;
11453;SDS011;5783;55.174;61.310;2023-09-19T01:23:23;2.03;;;1.80;;
11453;SDS011;5783;55.174;61.310;2023-09-19T01:32:29;2.27;;;1.97;;
11453;SDS011;5783;55.174;61.310;2023-09-19T01:34:59;2.70;;;2.10;;
11453;SDS011;5783;55.174;61.310;2023-09-19T01:37:30;2.40;;;2.13;;
11453;SDS011;5783;55.174;61.310;2023-09-19T01:54:50;2.57;;;2.23;;
11453;SDS011;5783;55.174;61.310;2023-09-19T02:00:30;2.30;;;2.10;;
11453;SDS011;5783;55.174;61.310;2023-09-19T02:03:03;3.50;;;2.20;;
11453;SDS011;5783;55.174;61.310;2023-09-19T02:05:33;2.67;;;2.13;;
11453;SDS011;5783;55.174;61.310;2023-09-19T02:08:02;2.77;;;2.00;;
11453;SDS011;5783;55.174;61.310;2023-09-19T02:10:31;2.20;;;2.00;;
11453;SDS011;5783;55.174;61.310;2023-09-19T02:13:01;3.20;;;2.20;;
11453;SDS011;5783;55.174;61.310;2023-09-19T02:15:31;4.83;;;2.00;;
11453;SDS011;5783;55.174;61.310;2023-09-19T02:18:01;3.73;;;1.90;;
11453;SDS011;5783;55.174;61.310;2023-09-19T02:20:32;2.67;;;1.90;;
11453;SDS011;5783;55.174;61.310;2023-09-19T02:23:03;1.90;;;1.80;;
11453;SDS011;5783;55.174;61.310;2023-09-19T02:25:34;2.20;;;2.00;;
11453;SDS011;5783;55.174;61.310;2023-09-19T02:28:04;2.30;;;1.93;;
11453;SDS011;5783;55.174;61.310;2023-09-19T02:30:35;2.17;;;1.90;;
11453;SDS011;5783;55.174;61.310;2023-09-19T02:33:04;2.40;;;2.00;;
11453;SDS011;5783;55.174;61.310;2023-09-19T02:35:34;1.97;;;1.80;;
11453;SDS011;5783;55.174;61.310;2023-09-19T02:38:04;2.70;;;2.30;;
11453;SDS011;5783;55.174;61.310;2023-09-19T02:40:52;2.17;;;1.93;;
11453;SDS011;5783;55.174;61.310;2023-09-19T02:43:22;4.13;;;2.20;;
11453;SDS011;5783;55.174;61.310;2023-09-19T02:45:52;3.20;;;2.00;;
11453;SDS011;5783;55.174;61.310;2023-09-19T02:48:23;2.43;;;2.00;;
11453;SDS011;5783;55.174;61.310;2023-09-19T02:50:52;2.40;;;2.10;;
11453;SDS011;5783;55.174;61.310;2023-09-19T02:53:21;2.10;;;1.90;;
11453;SDS011;5783;55.174;61.310;2023-09-19T02:55:50;2.20;;;2.00;;
11453;SDS011;5783;55.174;61.310;2023-09-19T02:58:22;2.30;;;2.10;;
11453;SDS011;5783;55.174;61.310;2023-09-19T03:00:53;2.43;;;2.00;;
11453;SDS011;5783;55.174;61.310;2023-09-19T03:03:23;1.80;;;1.70;;
11453;SDS011;5783;55.174;61.310;2023-09-19T03:05:53;2.33;;;1.90;;
11453;SDS011;5783;55.174;61.310;2023-09-19T03:08:24;2.97;;;2.00;;
11453;SDS011;5783;55.174;61.310;2023-09-19T03:10:53;2.77;;;2.00;;
11453;SDS011;5783;55.174;61.310;2023-09-19T03:13:22;2.37;;;2.17;;
11453;SDS011;5783;55.174;61.310;2023-09-19T03:15:53;2.67;;;2.30;;
11453;SDS011;5783;55.174;61.310;2023-09-19T03:18:24;2.20;;;2.00;;
11453;SDS011;5783;55.174;61.310;2023-09-19T03:20:54;2.47;;;2.20;;
11453;SDS011;5783;55.174;61.310;2023-09-19T03:23:26;2.43;;;2.00;;
11453;SDS011;5783;55.174;61.310;2023-09-19T03:25:56;2.57;;;2.00;;
11453;SDS011;5783;55.174;61.310;2023-09-19T03:28:25;3.60;;;2.30;;
11453;SDS011;5783;55.174;61.310;2023-09-19T03:33:44;3.50;;;2.10;;
11453;SDS011;5783;55.174;61.310;2023-09-19T03:36:13;3.20;;;2.40;;
11453;SDS011;5783;55.174;61.310;2023-09-19T03:38:42;2.43;;;2.20;;
11453;SDS011;5783;55.174;61.310;2023-09-19T03:41:11;2.77;;;2.00;;
11453;SDS011;5783;55.174;61.310;2023-09-19T03:43:42;2.57;;;2.07;;
11453;SDS011;5783;55.174;61.310;2023-09-19T03:46:11;2.73;;;2.17;;
11453;SDS011;5783;55.174;61.310;2023-09-19T03:48:40;2.53;;;2.30;;
11453;SDS011;5783;55.174;61.310;2023-09-19T03:51:10;3.57;;;2.37;;
11453;SDS011;5783;55.174;61.310;2023-09-19T03:53:39;3.10;;;1.93;;
11453;SDS011;5783;55.174;61.310;2023-09-19T03:56:08;2.40;;;2.20;;
11453;SDS011;5783;55.174;61.310;2023-09-19T03:58:37;2.63;;;2.03;;
11453;SDS011;5783;55.174;61.310;2023-09-19T04:01:06;2.50;;;2.20;;
11453;SDS011;5783;55.174;61.310;2023-09-19T04:03:35;3.07;;;2.20;;
11453;SDS011;5783;55.174;61.310;2023-09-19T04:06:24;2.97;;;2.10;;
11453;SDS011;5783;55.174;61.310;2023-09-19T04:08:53;2.27;;;2.03;;
11453;SDS011;5783;55.174;61.310;2023-09-19T04:11:23;3.10;;;2.30;;
11453;SDS011;5783;55.174;61.310;2023-09-19T04:13:52;2.57;;;2.17;;
11453;SDS011;5783;55.174;61.310;2023-09-19T04:16:21;2.20;;;2.00;;
11453;SDS011;5783;55.174;61.310;2023-09-19T04:18:51;2.33;;;2.10;;
11453;SDS011;5783;55.174;61.310;2023-09-19T04:21:20;2.10;;;1.90;;
11453;SDS011;5783;55.174;61.310;2023-09-19T04:23:49;2.70;;;2.33;;
11453;SDS011;5783;55.174;61.310;2023-09-19T04:26:18;3.70;;;2.27;;
11453;SDS011;5783;55.174;61.310;2023-09-19T04:28:47;2.30;;;1.90;;
11453;SDS011;5783;55.174;61.310;2023-09-19T04:31:17;3.77;;;2.30;;
11453;SDS011;5783;55.174;61.310;2023-09-19T04:33:48;2.93;;;2.20;;
11453;SDS011;5783;55.174;61.310;2023-09-19T04:36:17;2.40;;;2.17;;
11453;SDS011;5783;55.174;61.310;2023-09-19T04:38:48;3.23;;;2.10;;
11453;SDS011;5783;55.174;61.310;2023-09-19T04:41:17;2.80;;;2.17;;
11453;SDS011;5783;55.174;61.310;2023-09-19T04:43:48;3.83;;;2.20;;
11453;SDS011;5783;55.174;61.310;2023-09-19T04:46:17;2.40;;;2.20;;
11453;SDS011;5783;55.174;61.310;2023-09-19T04:48:46;3.43;;;2.20;;
11453;SDS011;5783;55.174;61.310;2023-09-19T04:51:15;4.30;;;2.47;;
11453;SDS011;5783;55.174;61.310;2023-09-19T04:53:46;2.77;;;2.50;;
11453;SDS011;5783;55.174;61.310;2023-09-19T04:56:15;4.07;;;2.70;;
11453;SDS011;5783;55.174;61.310;2023-09-19T04:58:45;4.27;;;2.50;;
11453;SDS011;5783;55.174;61.310;2023-09-19T05:01:14;2.67;;;2.30;;
11453;SDS011;5783;55.174;61.310;2023-09-19T05:03:43;2.60;;;2.40;;
11453;SDS011;5783;55.174;61.310;2023-09-19T05:06:14;2.80;;;2.50;;
11453;SDS011;5783;55.174;61.310;2023-09-19T05:08:44;5.53;;;3.10;;
11453;SDS011;5783;55.174;61.310;2023-09-19T05:11:14;5.70;;;4.20;;
11453;SDS011;5783;55.174;61.310;2023-09-19T05:13:44;8.23;;;5.17;;
11453;SDS011;5783;55.174;61.310;2023-09-19T05:16:13;6.63;;;5.03;;
11453;SDS011;5783;55.174;61.310;2023-09-19T05:18:42;9.97;;;6.17;;
11453;SDS011;5783;55.174;61.310;2023-09-19T05:21:11;7.33;;;4.80;;
11453;SDS011;5783;55.174;61.310;2023-09-19T05:23:41;10.07;;;6.63;;
11453;SDS011;5783;55.174;61.310;2023-09-19T05:26:11;11.10;;;6.77;;
11453;SDS011;5783;55.174;61.310;2023-09-19T05:28:41;8.90;;;5.77;;
11453;SDS011;5783;55.174;61.310;2023-09-19T05:31:10;12.07;;;7.53;;
11453;SDS011;5783;55.174;61.310;2023-09-19T05:33:41;7.07;;;6.27;;
11453;SDS011;5783;55.174;61.310;2023-09-19T05:36:10;13.33;;;10.40;;
11453;SDS011;5783;55.174;61.310;2023-09-19T05:38:41;14.57;;;9.73;;
11453;SDS011;5783;55.174;61.310;2023-09-19T05:41:10;15.40;;;8.40;;
11453;SDS011;5783;55.174;61.310;2023-09-19T05:43:39;17.60;;;9.53;;
11453;SDS011;5783;55.174;61.310;2023-09-19T05:57:32;13.37;;;8.87;;
11453;SDS011;5783;55.174;61.310;2023-09-19T06:00:01;12.37;;;8.37;;
11453;SDS011;5783;55.174;61.310;2023-09-19T06:02:33;10.50;;;6.90;;
11453;SDS011;5783;55.174;61.310;2023-09-19T06:05:04;10.63;;;7.17;;
11453;SDS011;5783;55.174;61.310;2023-09-19T06:07:54;12.47;;;7.70;;
11453;SDS011;5783;55.174;61.310;2023-09-19T06:10:24;12.27;;;9.30;;
11453;SDS011;5783;55.174;61.310;2023-09-19T06:12:55;13.03;;;9.80;;
11453;SDS011;5783;55.174;61.310;2023-09-19T06:15:24;10.97;;;7.70;;
11453;SDS011;5783;55.174;61.310;2023-09-19T06:17:54;10.47;;;7.30;;
11453;SDS011;5783;55.174;61.310;2023-09-19T06:20:25;12.97;;;7.70;;
11453;SDS011;5783;55.174;61.310;2023-09-19T06:22:56;9.27;;;6.80;;
11453;SDS011;5783;55.174;61.310;2023-09-19T06:25:25;9.77;;;6.93;;
11453;SDS011;5783;55.174;61.310;2023-09-19T06:27:54;8.23;;;6.40;;
11453;SDS011;5783;55.174;61.310;2023-09-19T06:30:24;8.47;;;6.27;;
11453;SDS011;5783;55.174;61.310;2023-09-19T06:35:45;8.10;;;5.60;;
11453;SDS011;5783;55.174;61.310;2023-09-19T06:38:14;8.37;;;4.87;;
11453;SDS011;5783;55.174;61.310;2023-09-19T06:40:45;9.40;;;4.77;;
11453;SDS011;5783;55.174;61.310;2023-09-19T06:43:14;6.97;;;4.90;;
11453;SDS011;5783;55.174;61.310;2023-09-19T06:45:45;9.93;;;4.83;;
11453;SDS011;5783;55.174;61.310;2023-09-19T06:48:14;7.13;;;4.30;;
11453;SDS011;5783;55.174;61.310;2023-09-19T06:50:44;5.77;;;4.27;;
11453;SDS011;5783;55.174;61.310;2023-09-19T06:53:15;4.80;;;4.27;;
11453;SDS011;5783;55.174;61.310;2023-09-19T06:55:44;4.57;;;4.13;;
11453;SDS011;5783;55.174;61.310;2023-09-19T06:58:13;6.73;;;4.30;;
11453;SDS011;5783;55.174;61.310;2023-09-19T07:00:43;10.53;;;4.50;;
11453;SDS011;5783;55.174;61.310;2023-09-19T07:03:13;6.73;;;4.30;;
11453;SDS011;5783;55.174;61.310;2023-09-19T07:05:44;6.57;;;4.13;;
11453;SDS011;5783;55.174;61.310;2023-09-19T07:08:15;5.83;;;4.00;;
11453;SDS011;5783;55.174;61.310;2023-09-19T07:10:45;5.87;;;3.97;;
11453;SDS011;5783;55.174;61.310;2023-09-19T07:13:15;5.20;;;3.93;;
11453;SDS011;5783;55.174;61.310;2023-09-19T07:15:44;5.57;;;4.50;;
11453;SDS011;5783;55.174;61.310;2023-09-19T07:18:16;4.53;;;4.03;;
11453;SDS011;5783;55.174;61.310;2023-09-19T07:20:46;6.37;;;4.43;;
11453;SDS011;5783;55.174;61.310;2023-09-19T07:23:15;7.00;;;4.40;;
11453;SDS011;5783;55.174;61.310;2023-09-19T07:25:46;6.20;;;4.37;;
11453;SDS011;5783;55.174;61.310;2023-09-19T07:28:16;7.27;;;4.53;;
11453;SDS011;5783;55.174;61.310;2023-09-19T07:30:45;7.30;;;4.30;;
11453;SDS011;5783;55.174;61.310;2023-09-19T07:33:15;6.17;;;4.43;;
11453;SDS011;5783;55.174;61.310;2023-09-19T07:38:33;7.47;;;4.40;;
11453;SDS011;5783;55.174;61.310;2023-09-19T07:41:02;7.67;;;4.57;;
11453;SDS011;5783;55.174;61.310;2023-09-19T07:43:31;6.00;;;4.07;;
11453;SDS011;5783;55.174;61.310;2023-09-19T07:48:50;7.70;;;4.33;;
11453;SDS011;5783;55.174;61.310;2023-09-19T07:51:19;5.13;;;4.30;;
11453;SDS011;5783;55.174;61.310;2023-09-19T07:53:49;6.57;;;4.50;;
11453;SDS011;5783;55.174;61.310;2023-09-19T07:56:18;4.60;;;4.20;;
11453;SDS011;5783;55.174;61.310;2023-09-19T07:58:48;4.30;;;3.87;;
11453;SDS011;5783;55.174;61.310;2023-09-19T08:01:17;6.07;;;4.10;;
11453;SDS011;5783;55.174;61.310;2023-09-19T08:03:48;5.77;;;4.20;;
11453;SDS011;5783;55.174;61.310;2023-09-19T08:06:17;7.57;;;4.20;;
11453;SDS011;5783;55.174;61.310;2023-09-19T08:08:46;5.70;;;4.13;;
11453;SDS011;5783;55.174;61.310;2023-09-19T08:11:19;5.83;;;4.50;;
11453;SDS011;5783;55.174;61.310;2023-09-19T08:13:49;6.43;;;4.67;;
11453;SDS011;5783;55.174;61.310;2023-09-19T08:16:18;7.40;;;4.50;;
11453;SDS011;5783;55.174;61.310;2023-09-19T08:18:48;5.70;;;4.27;;
11453;SDS011;5783;55.174;61.310;2023-09-19T08:21:19;5.33;;;4.63;;
11453;SDS011;5783;55.174;61.310;2023-09-19T08:23:50;5.53;;;4.50;;
11453;SDS011;5783;55.174;61.310;2023-09-19T08:26:19;8.67;;;4.63;;
11453;SDS011;5783;55.174;61.310;2023-09-19T08:28:50;4.87;;;4.13;;
11453;SDS011;5783;55.174;61.310;2023-09-19T08:31:19;7.43;;;4.50;;
11453;SDS011;5783;55.174;61.310;2023-09-19T08:33:49;8.77;;;4.53;;
11453;SDS011;5783;55.174;61.310;2023-09-19T08:38:52;6.07;;;4.67;;
11453;SDS011;5783;55.174;61.310;2023-09-19T08:41:22;4.93;;;4.03;;
11453;SDS011;5783;55.174;61.310;2023-09-19T08:43:51;7.33;;;4.50;;
11453;SDS011;5783;55.174;61.310;2023-09-19T08:46:21;6.30;;;4.30;;
11453;SDS011;5783;55.174;61.310;2023-09-19T08:51:44;7.20;;;4.80;;
11453;SDS011;5783;55.174;61.310;2023-09-19T08:54:46;6.13;;;4.67;;
11453;SDS011;5783;55.174;61.310;2023-09-19T08:57:07;7.60;;;4.60;;
11453;SDS011;5783;55.174;61.310;2023-09-19T08:59:38;7.47;;;4.73;;
11453;SDS011;5783;55.174;61.310;2023-09-19T09:04:57;8.80;;;4.53;;
11453;SDS011;5783;55.174;61.310;2023-09-19T09:07:27;7.00;;;4.37;;
11453;SDS011;5783;55.174;61.310;2023-09-19T09:09:59;5.33;;;4.37;;
11453;SDS011;5783;55.174;61.310;2023-09-19T09:12:29;7.63;;;4.43;;
11453;SDS011;5783;55.174;61.310;2023-09-19T09:14:59;7.10;;;5.00;;
11453;SDS011;5783;55.174;61.310;2023-09-19T09:17:30;8.57;;;4.60;;
11453;SDS011;5783;55.174;61.310;2023-09-19T09:20:00;7.77;;;4.63;;
11453;SDS011;5783;55.174;61.310;2023-09-19T09:22:33;6.43;;;4.50;;
11453;SDS011;5783;55.174;61.310;2023-09-19T09:25:04;9.33;;;4.70;;
11453;SDS011;5783;55.174;61.310;2023-09-19T09:27:34;7.73;;;4.97;;
11453;SDS011;5783;55.174;61.310;2023-09-19T09:30:04;6.50;;;4.80;;
11453;SDS011;5783;55.174;61.310;2023-09-19T09:32:34;6.90;;;4.40;;
11453;SDS011;5783;55.174;61.310;2023-09-19T09:35:07;6.97;;;5.07;;
11453;SDS011;5783;55.174;61.310;2023-09-19T09:37:36;7.80;;;4.83;;
11453;SDS011;5783;55.174;61.310;2023-09-19T09:40:06;9.27;;;4.87;;
11453;SDS011;5783;55.174;61.310;2023-09-19T09:42:55;8.30;;;4.50;;
11453;SDS011;5783;55.174;61.310;2023-09-19T09:45:25;9.00;;;4.60;;
11453;SDS011;5783;55.174;61.310;2023-09-19T09:47:56;7.40;;;4.77;;
11453;SDS011;5783;55.174;61.310;2023-09-19T09:50:46;7.37;;;4.73;;
11453;SDS011;5783;55.174;61.310;2023-09-19T09:56:08;6.73;;;4.80;;
11453;SDS011;5783;55.174;61.310;2023-09-19T10:01:45;5.70;;;4.27;;
11453;SDS011;5783;55.174;61.310;2023-09-19T10:04:01;8.27;;;4.50;;
11453;SDS011;5783;55.174;61.310;2023-09-19T10:06:39;7.30;;;4.20;;
11453;SDS011;5783;55.174;61.310;2023-09-19T10:14:44;7.30;;;4.50;;
11453;SDS011;5783;55.174;61.310;2023-09-19T10:17:15;9.37;;;4.40;;
11453;SDS011;5783;55.174;61.310;2023-09-19T10:22:41;10.60;;;6.00;;
11453;SDS011;5783;55.174;61.310;2023-09-19T10:25:13;9.70;;;6.00;;
11453;SDS011;5783;55.174;61.310;2023-09-19T10:27:44;14.53;;;6.33;;
11453;SDS011;5783;55.174;61.310;2023-09-19T10:30:13;8.43;;;4.97;;
11453;SDS011;5783;55.174;61.310;2023-09-19T10:32:43;10.93;;;5.80;;
11453;SDS011;5783;55.174;61.310;2023-09-19T10:35:13;9.20;;;4.90;;
11453;SDS011;5783;55.174;61.310;2023-09-19T10:37:45;8.17;;;4.57;;
11453;SDS011;5783;55.174;61.310;2023-09-19T10:42:53;7.23;;;4.90;;
11453;SDS011;5783;55.174;61.310;2023-09-19T10:45:26;8.77;;;4.47;;
11453;SDS011;5783;55.174;61.310;2023-09-19T10:56:52;8.73;;;4.47;;
11453;SDS011;5783;55.174;61.310;2023-09-19T10:59:23;6.57;;;4.93;;
11453;SDS011;5783;55.174;61.310;2023-09-19T11:01:55;9.97;;;5.03;;
11453;SDS011;5783;55.174;61.310;2023-09-19T11:07:16;9.27;;;5.20;;
11453;SDS011;5783;55.174;61.310;2023-09-19T11:15:10;7.93;;;5.60;;
11453;SDS011;5783;55.174;61.310;2023-09-19T11:17:41;8.60;;;5.50;;
11453;SDS011;5783;55.174;61.310;2023-09-19T11:20:32;9.57;;;5.67;;
11453;SDS011;5783;55.174;61.310;2023-09-19T11:23:20;10.60;;;5.80;;
11453;SDS011;5783;55.174;61.310;2023-09-19T11:25:52;8.60;;;5.80;;
11453;SDS011;5783;55.174;61.310;2023-09-19T11:42:56;11.53;;;6.73;;
11453;SDS011;5783;55.174;61.310;2023-09-19T11:48:35;9.77;;;7.23;;
11453;SDS011;5783;55.174;61.310;2023-09-19T11:56:46;11.67;;;7.63;;
11453;SDS011;5783;55.174;61.310;2023-09-19T11:59:20;12.70;;;7.60;;
11453;SDS011;5783;55.174;61.310;2023-09-19T12:01:51;11.67;;;8.17;;
11453;SDS011;5783;55.174;61.310;2023-09-19T12:04:41;12.03;;;7.23;;
11453;SDS011;5783;55.174;61.310;2023-09-19T12:07:30;10.97;;;7.20;;
11453;SDS011;5783;55.174;61.310;2023-09-19T12:10:04;11.47;;;7.13;;
11453;SDS011;5783;55.174;61.310;2023-09-19T12:12:35;13.17;;;7.20;;
11453;SDS011;5783;55.174;61.310;2023-09-19T12:15:04;11.93;;;7.33;;
11453;SDS011;5783;55.174;61.310;2023-09-19T12:20:25;10.60;;;7.10;;
11453;SDS011;5783;55.174;61.310;2023-09-19T12:22:56;9.73;;;7.00;;
11453;SDS011;5783;55.174;61.310;2023-09-19T12:25:25;8.73;;;6.07;;
11453;SDS011;5783;55.174;61.310;2023-09-19T12:27:55;10.87;;;6.30;;
11453;SDS011;5783;55.174;61.310;2023-09-19T12:30:27;10.73;;;6.70;;
11453;SDS011;5783;55.174;61.310;2023-09-19T12:32:58;11.73;;;6.83;;
11453;SDS011;5783;55.174;61.310;2023-09-19T12:35:29;12.40;;;6.43;;
11453;SDS011;5783;55.174;61.310;2023-09-19T12:41:10;9.00;;;6.80;;
11453;SDS011;5783;55.174;61.310;2023-09-19T12:43:39;10.43;;;7.03;;
11453;SDS011;5783;55.174;61.310;2023-09-19T12:46:11;15.40;;;7.00;;
11453;SDS011;5783;55.174;61.310;2023-09-19T12:48:41;11.43;;;6.73;;
11453;SDS011;5783;55.174;61.310;2023-09-19T12:51:13;9.70;;;6.80;;
11453;SDS011;5783;55.174;61.310;2023-09-19T12:56:39;10.57;;;7.30;;
11453;SDS011;5783;55.174;61.310;2023-09-19T12:59:29;12.43;;;7.03;;
11453;SDS011;5783;55.174;61.310;2023-09-19T13:10:29;14.40;;;8.10;;
11453;SDS011;5783;55.174;61.310;2023-09-19T13:12:59;14.63;;;8.27;;
11453;SDS011;5783;55.174;61.310;2023-09-19T13:15:32;15.83;;;7.70;;
11453;SDS011;5783;55.174;61.310;2023-09-19T13:18:10;11.60;;;8.33;;
11453;SDS011;5783;55.174;61.310;2023-09-19T13:20:39;13.30;;;8.30;;
11453;SDS011;5783;55.174;61.310;2023-09-19T13:23:25;12.70;;;8.13;;
11453;SDS011;5783;55.174;61.310;2023-09-19T13:25:43;15.07;;;8.97;;
11453;SDS011;5783;55.174;61.310;2023-09-19T13:28:13;13.13;;;8.97;;
11453;SDS011;5783;55.174;61.310;2023-09-19T13:30:43;14.93;;;9.27;;
11453;SDS011;5783;55.174;61.310;2023-09-19T13:33:14;15.27;;;9.90;;
11453;SDS011;5783;55.174;61.310;2023-09-19T13:35:44;19.43;;;11.20;;
11453;SDS011;5783;55.174;61.310;2023-09-19T13:38:14;15.97;;;10.83;;
11453;SDS011;5783;55.174;61.310;2023-09-19T13:40:44;18.43;;;11.97;;
11453;SDS011;5783;55.174;61.310;2023-09-19T13:43:13;19.20;;;11.40;;
11453;SDS011;5783;55.174;61.310;2023-09-19T13:45:43;16.00;;;11.10;;
11453;SDS011;5783;55.174;61.310;2023-09-19T13:48:12;22.17;;;11.93;;
11453;SDS011;5783;55.174;61.310;2023-09-19T13:50:41;24.60;;;11.77;;
11453;SDS011;5783;55.174;61.310;2023-09-19T13:53:11;18.67;;;11.60;;
11453;SDS011;5783;55.174;61.310;2023-09-19T13:55:40;20.97;;;12.03;;
11453;SDS011;5783;55.174;61.310;2023-09-19T13:58:09;17.83;;;11.90;;
11453;SDS011;5783;55.174;61.310;2023-09-19T14:00:38;18.70;;;11.30;;
11453;SDS011;5783;55.174;61.310;2023-09-19T14:03:09;19.13;;;11.23;;
11453;SDS011;5783;55.174;61.310;2023-09-19T14:05:38;16.93;;;11.20;;
11453;SDS011;5783;55.174;61.310;2023-09-19T14:08:08;14.20;;;9.73;;
11453;SDS011;5783;55.174;61.310;2023-09-19T14:10:38;15.03;;;9.60;;
11453;SDS011;5783;55.174;61.310;2023-09-19T14:13:07;13.80;;;8.37;;
11453;SDS011;5783;55.174;61.310;2023-09-19T14:15:38;13.10;;;7.97;;
11453;SDS011;5783;55.174;61.310;2023-09-19T14:18:08;10.53;;;7.20;;
11453;SDS011;5783;55.174;61.310;2023-09-19T14:20:38;11.37;;;6.47;;
11453;SDS011;5783;55.174;61.310;2023-09-19T14:23:27;8.50;;;5.67;;
11453;SDS011;5783;55.174;61.310;2023-09-19T14:25:56;10.93;;;5.60;;
11453;SDS011;5783;55.174;61.310;2023-09-19T14:28:27;11.20;;;5.50;;
11453;SDS011;5783;55.174;61.310;2023-09-19T14:30:56;8.23;;;5.03;;
11453;SDS011;5783;55.174;61.310;2023-09-19T14:33:25;8.53;;;5.10;;
11453;SDS011;5783;55.174;61.310;2023-09-19T14:35:54;8.37;;;5.07;;
11453;SDS011;5783;55.174;61.310;2023-09-19T14:38:23;9.00;;;5.13;;
11453;SDS011;5783;55.174;61.310;2023-09-19T14:41:26;8.43;;;5.47;;
11453;SDS011;5783;55.174;61.310;2023-09-19T14:43:43;12.20;;;5.80;;
11453;SDS011;5783;55.174;61.310;2023-09-19T14:46:12;10.70;;;5.00;;
11453;SDS011;5783;55.174;61.310;2023-09-19T14:48:42;10.07;;;5.80;;
11453;SDS011;5783;55.174;61.310;2023-09-19T14:51:13;10.83;;;5.73;;
11453;SDS011;5783;55.174;61.310;2023-09-19T14:53:44;9.23;;;5.07;;
11453;SDS011;5783;55.174;61.310;2023-09-19T14:56:15;10.60;;;5.20;;
11453;SDS011;5783;55.174;61.310;2023-09-19T14:58:45;8.20;;;4.63;;
11453;SDS011;5783;55.174;61.310;2023-09-19T15:01:15;6.40;;;4.60;;
11453;SDS011;5783;55.174;61.310;2023-09-19T15:03:44;6.00;;;4.40;;
11453;SDS011;5783;55.174;61.310;2023-09-19T15:06:15;5.03;;;4.50;;
11453;SDS011;5783;55.174;61.310;2023-09-19T15:08:45;6.63;;;4.23;;
11453;SDS011;5783;55.174;61.310;2023-09-19T15:11:16;4.97;;;4.27;;
11453;SDS011;5783;55.174;61.310;2023-09-19T15:13:47;8.20;;;4.20;;
11453;SDS011;5783;55.174;61.310;2023-09-19T15:16:18;5.17;;;4.40;;
11453;SDS011;5783;55.174;61.310;2023-09-19T15:18:47;5.07;;;4.40;;
11453;SDS011;5783;55.174;61.310;2023-09-19T15:21:18;6.53;;;4.30;;
11453;SDS011;5783;55.174;61.310;2023-09-19T15:23:47;4.93;;;3.93;;
11453;SDS011;5783;55.174;61.310;2023-09-19T15:26:16;5.53;;;3.97;;
11453;SDS011;5783;55.174;61.310;2023-09-19T15:28:47;4.43;;;3.80;;
11453;SDS011;5783;55.174;61.310;2023-09-19T15:31:16;4.90;;;4.27;;
11453;SDS011;5783;55.174;61.310;2023-09-19T15:33:45;5.40;;;3.93;;
11453;SDS011;5783;55.174;61.310;2023-09-19T15:36:15;4.73;;;4.17;;
11453;SDS011;5783;55.174;61.310;2023-09-19T15:46:56;4.50;;;3.53;;
11453;SDS011;5783;55.174;61.310;2023-09-19T15:49:26;5.33;;;3.90;;
11453;SDS011;5783;55.174;61.310;2023-09-19T15:51:55;4.93;;;3.93;;
11453;SDS011;5783;55.174;61.310;2023-09-19T15:54:24;4.43;;;3.47;;
11453;SDS011;5783;55.174;61.310;2023-09-19T15:56:55;4.37;;;3.60;;
11453;SDS011;5783;55.174;61.310;2023-09-19T15:59:24;4.13;;;3.53;;
11453;SDS011;5783;55.174;61.310;2023-09-19T16:01:55;4.00;;;3.57;;
11453;SDS011;5783;55.174;61.310;2023-09-19T16:04:24;5.07;;;3.87;;
11453;SDS011;5783;55.174;61.310;2023-09-19T16:06:53;5.83;;;3.80;;
11453;SDS011;5783;55.174;61.310;2023-09-19T16:09:22;3.90;;;3.40;;
11453;SDS011;5783;55.174;61.310;2023-09-19T16:11:51;3.80;;;3.50;;
11453;SDS011;5783;55.174;61.310;2023-09-19T16:14:21;3.73;;;3.33;;
11453;SDS011;5783;55.174;61.310;2023-09-19T16:16:50;5.53;;;3.43;;
11453;SDS011;5783;55.174;61.310;2023-09-19T16:19:19;3.77;;;3.37;;
11453;SDS011;5783;55.174;61.310;2023-09-19T16:21:48;4.47;;;3.30;;
11453;SDS011;5783;55.174;61.310;2023-09-19T16:24:17;4.63;;;3.67;;
11453;SDS011;5783;55.174;61.310;2023-09-19T16:26:46;4.47;;;3.10;;
11453;SDS011;5783;55.174;61.310;2023-09-19T16:29:15;3.37;;;2.90;;
11453;SDS011;5783;55.174;61.310;2023-09-19T16:31:46;3.23;;;2.87;;
11453;SDS011;5783;55.174;61.310;2023-09-19T16:34:15;3.53;;;3.00;;
11453;SDS011;5783;55.174;61.310;2023-09-19T16:36:45;4.07;;;3.00;;
11453;SDS011;5783;55.174;61.310;2023-09-19T16:39:14;3.00;;;2.70;;
11453;SDS011;5783;55.174;61.310;2023-09-19T16:41:44;3.80;;;3.00;;
11453;SDS011;5783;55.174;61.310;2023-09-19T16:44:13;3.00;;;2.50;;
11453;SDS011;5783;55.174;61.310;2023-09-19T16:46:42;4.23;;;2.77;;
11453;SDS011;5783;55.174;61.310;2023-09-19T16:49:11;3.30;;;2.67;;
11453;SDS011;5783;55.174;61.310;2023-09-19T16:51:40;3.93;;;2.50;;
11453;SDS011;5783;55.174;61.310;2023-09-19T16:54:10;3.07;;;2.77;;
11453;SDS011;5783;55.174;61.310;2023-09-19T16:56:40;3.13;;;2.70;;
11453;SDS011;5783;55.174;61.310;2023-09-19T16:59:09;3.13;;;2.60;;
11453;SDS011;5783;55.174;61.310;2023-09-19T17:01:39;3.97;;;2.40;;
11453;SDS011;5783;55.174;61.310;2023-09-19T17:04:08;4.33;;;2.40;;
11453;SDS011;5783;55.174;61.310;2023-09-19T17:06:37;3.03;;;2.73;;
11453;SDS011;5783;55.174;61.310;2023-09-19T17:09:06;2.97;;;2.53;;
11453;SDS011;5783;55.174;61.310;2023-09-19T17:11:35;3.10;;;2.50;;
11453;SDS011;5783;55.174;61.310;2023-09-19T17:14:04;2.90;;;2.30;;
11453;SDS011;5783;55.174;61.310;2023-09-19T17:16:35;3.23;;;2.73;;
11453;SDS011;5783;55.174;61.310;2023-09-19T17:19:04;2.47;;;2.27;;
11453;SDS011;5783;55.174;61.310;2023-09-19T17:21:34;4.57;;;2.37;;
11453;SDS011;5783;55.174;61.310;2023-09-19T17:24:04;2.80;;;2.50;;
11453;SDS011;5783;55.174;61.310;2023-09-19T17:26:35;3.33;;;2.60;;
11453;SDS011;5783;55.174;61.310;2023-09-19T17:29:04;2.70;;;2.47;;
11453;SDS011;5783;55.174;61.310;2023-09-19T17:31:33;2.37;;;2.17;;
11453;SDS011;5783;55.174;61.310;2023-09-19T17:34:04;3.57;;;2.50;;